Time,TemperatureF,DewpointF,PressureIn,WindDirection,WindDirectionDegrees,WindSpeedMPH,WindSpeedGustMPH,Humidity,HourlyPrecipIn,Conditions,Clouds,dailyrainin,SoftwareType,DateUTC
2013-02-11 00:00:00,45.4,39.6,30.18,NNW,335,0.0,0.0,80,0.00,,-RA,0.00,VWS V14.01,2013-02-11 05:00:00,
2013-02-11 00:05:00,45.4,40.2,30.18,WNW,297,0.0,0.0,82,0.00,,-RA,0.00,VWS V14.01,2013-02-11 05:05:00,
2013-02-11 00:10:00,45.4,40.5,30.18,North,0,0.0,0.0,83,0.00,,-RA,0.00,VWS V14.01,2013-02-11 05:10:00,
2013-02-11 00:15:00,45.4,40.5,30.18,North,0,0.0,0.0,83,0.00,,-RA,0.00,VWS V14.01,2013-02-11 05:15:00,
2013-02-11 00:21:00,45.6,40.7,30.18,North,0,0.0,0.0,83,0.00,,-RA,0.00,VWS V14.01,2013-02-11 05:21:00,
2013-02-11 00:26:00,45.6,40.7,30.18,North,2,0.0,0.0,83,0.00,,-RA,0.00,VWS V14.01,2013-02-11 05:26:00,
2013-02-11 00:31:00,45.6,40.7,30.18,North,2,0.0,0.0,83,0.00,,-RA,0.00,VWS V14.01,2013-02-11 05:31:00,
2013-02-11 00:36:00,45.8,40.9,30.18,North,2,0.0,0.0,83,0.00,,-RA,0.00,VWS V14.01,2013-02-11 05:36:00,
2013-02-11 00:41:00,45.8,40.9,30.18,North,2,0.0,0.0,83,0.00,,-RA,0.00,VWS V14.01,2013-02-11 05:41:00,
2013-02-11 00:46:00,45.9,41.1,30.18,North,11,0.0,0.0,83,0.00,,-RA,0.00,VWS V14.01,2013-02-11 05:46:00,
2013-02-11 00:51:00,45.9,41.1,30.18,NW,312,0.0,0.0,83,0.00,,-RA,0.00,VWS V14.01,2013-02-11 05:51:00,
2013-02-11 00:56:00,45.9,41.1,30.18,NW,312,0.0,0.0,83,0.00,,-RA,0.00,VWS V14.01,2013-02-11 05:56:00,
2013-02-11 01:01:00,45.9,41.4,30.15,NW,307,0.0,0.0,84,0.00,,-RA,0.00,VWS V14.01,2013-02-11 06:01:00,
2013-02-11 01:06:00,45.9,41.4,30.15,WNW,297,0.0,0.0,84,0.00,,OVC150,0.00,VWS V14.01,2013-02-11 06:06:00,
2013-02-11 01:11:00,46.1,41.9,30.15,NW,312,0.0,8.5,85,0.00,,OVC150,0.00,VWS V14.01,2013-02-11 06:11:00,
2013-02-11 01:16:00,46.3,42.3,30.15,NNW,327,0.0,0.0,86,0.00,,OVC150,0.00,VWS V14.01,2013-02-11 06:16:00,
2013-02-11 01:21:00,46.5,42.8,30.15,NE,35,0.0,0.0,87,0.00,,OVC150,0.00,VWS V14.01,2013-02-11 06:21:00,
2013-02-11 01:26:00,46.5,42.8,30.15,NNW,331,0.0,0.0,87,0.00,,OVC150,0.00,VWS V14.01,2013-02-11 06:26:00,
2013-02-11 01:31:00,46.7,43.0,30.15,ENE,65,0.0,0.0,87,0.00,,OVC150,0.00,VWS V14.01,2013-02-11 06:31:00,
2013-02-11 01:36:00,46.7,43.0,30.15,North,8,0.0,0.0,87,0.00,,OVC150,0.00,VWS V14.01,2013-02-11 06:36:00,
2013-02-11 01:41:00,46.8,43.2,30.12,North,353,0.0,0.0,87,0.00,,OVC150,0.00,VWS V14.01,2013-02-11 06:41:00,
2013-02-11 01:46:00,46.8,43.2,30.12,NNW,343,0.0,0.0,87,0.00,,OVC150,0.00,VWS V14.01,2013-02-11 06:46:00,
2013-02-11 01:51:00,46.8,43.2,30.12,NNW,343,0.0,0.0,87,0.00,,OVC150,0.00,VWS V14.01,2013-02-11 06:51:00,
2013-02-11 01:56:00,47.0,43.7,30.15,North,353,0.0,0.0,88,0.00,,OVC150,0.00,VWS V14.01,2013-02-11 06:56:00,
2013-02-11 02:02:00,47.2,43.8,30.15,North,0,0.0,0.0,88,0.00,,OVC060,0.00,VWS V14.01,2013-02-11 07:02:00,
2013-02-11 02:07:00,47.4,44.0,30.15,NW,322,0.0,0.0,88,0.00,,OVC060,0.00,VWS V14.01,2013-02-11 07:07:00,
2013-02-11 02:12:00,47.4,44.0,30.15,NW,316,0.0,0.0,88,0.00,,OVC060,0.00,VWS V14.01,2013-02-11 07:12:00,
2013-02-11 02:17:00,47.6,44.2,30.15,NW,316,0.0,0.0,88,0.00,,OVC060,0.00,VWS V14.01,2013-02-11 07:17:00,
2013-02-11 02:22:00,47.6,44.2,30.15,NW,316,0.0,0.0,88,0.00,,OVC060,0.00,VWS V14.01,2013-02-11 07:22:00,
2013-02-11 02:27:00,47.7,44.4,30.12,NW,322,0.0,0.0,88,0.00,,OVC060,0.00,VWS V14.01,2013-02-11 07:27:00,
2013-02-11 02:32:00,47.7,44.7,30.12,NNW,338,0.0,0.0,89,0.00,,OVC060,0.00,VWS V14.01,2013-02-11 07:32:00,
2013-02-11 02:37:00,47.9,44.8,30.12,NE,43,0.0,0.0,89,0.00,,OVC060,0.00,VWS V14.01,2013-02-11 07:37:00,
2013-02-11 02:42:00,48.1,45.0,30.12,NNE,28,0.0,0.0,89,0.00,,OVC060,0.00,VWS V14.01,2013-02-11 07:42:00,
2013-02-11 02:47:00,48.1,45.3,30.12,WNW,292,0.0,0.0,90,0.00,,OVC060,0.00,VWS V14.01,2013-02-11 07:47:00,
2013-02-11 02:52:00,48.3,45.5,30.12,NNW,327,0.0,0.0,90,0.00,,OVC060,0.00,VWS V14.01,2013-02-11 07:52:00,
2013-02-11 02:57:00,48.3,45.8,30.12,West,268,0.0,0.0,91,0.00,,OVC060,0.00,VWS V14.01,2013-02-11 07:57:00,
2013-02-11 03:02:00,48.5,46.0,30.12,West,275,0.0,0.0,91,0.00,,OVC050,0.00,VWS V14.01,2013-02-11 08:02:00,
2013-02-11 03:07:00,48.6,46.4,30.12,West,279,0.0,0.0,92,0.00,,OVC050,0.00,VWS V14.01,2013-02-11 08:07:00,
2013-02-11 03:12:00,49.0,47.1,30.12,West,270,0.0,8.5,93,0.00,,OVC050,0.00,VWS V14.01,2013-02-11 08:12:00,
2013-02-11 03:17:00,49.2,47.5,30.12,West,270,0.0,0.0,94,0.00,,OVC050,0.00,VWS V14.01,2013-02-11 08:17:00,
2013-02-11 03:22:00,49.4,48.0,30.12,WNW,291,0.0,0.0,95,0.00,,OVC050,0.00,VWS V14.01,2013-02-11 08:22:00,
2013-02-11 03:27:00,49.4,48.0,30.12,NW,304,0.0,0.0,95,0.00,,OVC050,0.00,VWS V14.01,2013-02-11 08:27:00,
2013-02-11 03:32:00,49.5,48.5,30.12,NE,34,0.0,0.0,96,0.00,,OVC050,0.00,VWS V14.01,2013-02-11 08:32:00,
2013-02-11 03:37:00,49.7,48.6,30.12,SSW,203,0.0,0.0,96,0.00,,OVC050,0.00,VWS V14.01,2013-02-11 08:37:00,
2013-02-11 03:42:00,49.7,48.6,30.09,SSW,211,0.0,0.0,96,0.00,,OVC050,0.00,VWS V14.01,2013-02-11 08:42:00,
2013-02-11 03:47:00,49.9,48.8,30.09,West,271,0.0,0.0,96,0.00,,OVC050,0.00,VWS V14.01,2013-02-11 08:47:00,
2013-02-11 03:52:00,49.9,49.1,30.09,WNW,289,0.0,0.0,97,0.00,,OVC050,0.00,VWS V14.01,2013-02-11 08:52:00,
2013-02-11 03:57:00,50.1,49.3,30.09,NNW,340,0.0,0.0,97,0.00,,OVC050,0.00,VWS V14.01,2013-02-11 08:57:00,
2013-02-11 04:02:00,50.1,49.3,30.09,NW,314,0.0,0.0,97,0.00,,OVC034,0.00,VWS V14.01,2013-02-11 09:02:00,
2013-02-11 04:07:00,50.1,49.3,30.09,NW,316,0.0,0.0,97,0.00,,OVC034,0.00,VWS V14.01,2013-02-11 09:07:00,
2013-02-11 04:13:00,50.1,49.3,30.09,NW,326,0.0,0.0,97,0.00,,OVC034,0.00,VWS V14.01,2013-02-11 09:13:00,
2013-02-11 04:18:00,50.1,49.3,30.09,WNW,302,0.0,0.0,97,0.00,,OVC034,0.00,VWS V14.01,2013-02-11 09:18:00,
2013-02-11 04:23:00,50.1,49.3,30.09,NW,311,0.0,0.0,97,0.00,,OVC034,0.00,VWS V14.01,2013-02-11 09:23:00,
2013-02-11 04:28:00,50.3,49.4,30.09,NE,53,0.0,0.0,97,0.00,,OVC034,0.00,VWS V14.01,2013-02-11 09:28:00,
2013-02-11 04:33:00,50.3,49.4,30.09,NE,53,0.0,0.0,97,0.00,,OVC034,0.00,VWS V14.01,2013-02-11 09:33:00,
2013-02-11 04:38:00,50.3,49.4,30.09,NE,53,0.0,0.0,97,0.00,,OVC034,0.00,VWS V14.01,2013-02-11 09:38:00,
2013-02-11 04:43:00,50.3,49.4,30.09,NE,40,0.0,0.0,97,0.00,,OVC034,0.00,VWS V14.01,2013-02-11 09:43:00,
2013-02-11 04:48:00,50.4,49.6,30.09,NE,40,0.0,0.0,97,0.00,,OVC034,0.00,VWS V14.01,2013-02-11 09:48:00,
2013-02-11 04:53:00,50.4,49.6,30.09,NE,40,0.0,0.0,97,0.00,,OVC034,0.00,VWS V14.01,2013-02-11 09:53:00,
2013-02-11 04:58:00,50.4,49.6,30.09,NE,40,0.0,0.0,97,0.00,,OVC034,0.00,VWS V14.01,2013-02-11 09:58:00,
2013-02-11 05:03:00,50.4,49.6,30.09,NE,40,0.0,0.0,97,0.00,,OVC016,0.00,VWS V14.01,2013-02-11 10:03:00,
2013-02-11 05:08:00,50.6,49.8,30.09,NE,40,0.0,0.0,97,0.00,,OVC016,0.00,VWS V14.01,2013-02-11 10:08:00,
2013-02-11 05:13:00,50.6,49.8,30.09,NE,40,0.0,0.0,97,0.00,,OVC016,0.00,VWS V14.01,2013-02-11 10:13:00,
2013-02-11 05:18:00,50.6,49.8,30.09,NE,40,0.0,0.0,97,0.00,,OVC016,0.00,VWS V14.01,2013-02-11 10:18:00,
2013-02-11 05:23:00,50.6,49.8,30.09,NE,40,0.0,0.0,97,0.00,,OVC016,0.00,VWS V14.01,2013-02-11 10:23:00,
2013-02-11 05:29:00,50.8,50.0,30.06,NE,40,0.0,0.0,97,0.00,,OVC016,0.00,VWS V14.01,2013-02-11 10:29:00,
2013-02-11 05:34:00,50.8,50.3,30.06,NE,40,0.0,0.0,98,0.00,,OVC016,0.00,VWS V14.01,2013-02-11 10:34:00,
2013-02-11 05:39:00,50.8,50.3,30.06,NE,40,0.0,0.0,98,0.00,,OVC016,0.00,VWS V14.01,2013-02-11 10:39:00,
2013-02-11 05:44:00,50.8,50.3,30.06,NE,40,0.0,0.0,98,0.00,,OVC016,0.00,VWS V14.01,2013-02-11 10:44:00,
2013-02-11 05:49:00,51.0,50.7,30.09,NNE,25,0.0,0.0,99,0.00,,OVC016,0.00,VWS V14.01,2013-02-11 10:49:00,
2013-02-11 05:54:00,51.0,50.7,30.09,NNE,25,0.0,0.0,99,0.00,,OVC016,0.00,VWS V14.01,2013-02-11 10:54:00,
2013-02-11 05:59:00,51.2,51.2,30.09,NNE,25,0.0,0.0,100,0.00,,OVC016,0.00,VWS V14.01,2013-02-11 10:59:00,
2013-02-11 06:04:00,51.2,51.2,30.09,NNE,25,0.0,0.0,100,0.00,,OVC010,0.00,VWS V14.01,2013-02-11 11:04:00,
2013-02-11 06:09:00,51.3,51.3,30.06,NNE,25,0.0,0.0,100,0.00,,OVC010,0.00,VWS V14.01,2013-02-11 11:09:00,
2013-02-11 06:14:00,51.5,51.5,30.06,NNE,25,0.0,0.0,100,0.00,,OVC010,0.00,VWS V14.01,2013-02-11 11:14:00,
2013-02-11 06:19:00,51.5,51.5,30.06,NNE,12,0.0,0.0,100,0.00,,-RA,0.00,VWS V14.01,2013-02-11 11:19:00,
2013-02-11 06:24:00,51.5,51.5,30.06,North,350,0.0,0.0,100,0.00,,-RA,0.00,VWS V14.01,2013-02-11 11:24:00,
2013-02-11 06:30:00,51.7,51.7,30.06,North,350,0.0,0.0,100,0.00,,-RA,0.00,VWS V14.01,2013-02-11 11:30:00,
2013-02-11 06:35:00,51.7,51.7,30.06,North,353,0.0,0.0,100,0.00,,-RA,0.00,VWS V14.01,2013-02-11 11:35:00,
2013-02-11 06:40:00,51.7,51.7,30.06,North,353,0.0,0.0,100,0.00,,-RA,0.00,VWS V14.01,2013-02-11 11:40:00,
2013-02-11 06:45:00,51.9,51.9,30.06,North,353,0.0,0.0,100,0.00,,-RA,0.00,VWS V14.01,2013-02-11 11:45:00,
2013-02-11 06:50:00,51.9,51.9,30.06,North,353,0.0,0.0,100,0.00,,-RA,0.00,VWS V14.01,2013-02-11 11:50:00,
2013-02-11 06:55:00,51.9,51.9,30.06,NW,325,0.0,0.0,100,0.00,,-RA,0.00,VWS V14.01,2013-02-11 11:55:00,
2013-02-11 07:00:00,52.1,52.1,30.06,North,7,0.0,0.0,100,0.00,,-RA,0.00,VWS V14.01,2013-02-11 12:00:00,
2013-02-11 07:05:00,52.1,52.1,30.06,NNW,332,0.0,0.0,100,0.00,,-RA,0.00,VWS V14.01,2013-02-11 12:05:00,
2013-02-11 07:10:00,52.2,52.2,30.06,ENE,60,8.1,8.5,100,0.00,,-RA,0.00,VWS V14.01,2013-02-11 12:10:00,
2013-02-11 07:15:00,52.2,52.2,30.06,East,101,0.0,0.0,100,0.04,,-RA,0.04,VWS V14.01,2013-02-11 12:15:00,
2013-02-11 07:20:00,52.2,52.2,30.06,NNE,30,0.0,0.0,100,0.04,,-RA,0.04,VWS V14.01,2013-02-11 12:20:00,
2013-02-11 07:25:00,52.2,52.2,30.06,East,82,0.0,0.0,100,0.04,,-RA,0.04,VWS V14.01,2013-02-11 12:25:00,
2013-02-11 07:30:00,52.2,52.2,30.06,East,82,0.0,0.0,100,0.04,,-RA,0.04,VWS V14.01,2013-02-11 12:30:00,
2013-02-11 07:35:00,53.0,53.0,30.06,NNW,341,0.0,0.0,100,0.04,,-RA,0.04,VWS V14.01,2013-02-11 12:35:00,
2013-02-11 07:40:00,53.1,53.1,30.06,SW,230,0.0,0.0,100,0.04,,-RA,0.04,VWS V14.01,2013-02-11 12:40:00,
2013-02-11 07:45:00,53.1,53.1,30.06,East,92,0.0,0.0,100,0.04,,-RA,0.04,VWS V14.01,2013-02-11 12:45:00,
2013-02-11 07:50:00,54.0,54.0,30.06,North,357,0.0,0.0,100,0.04,,-RA,0.04,VWS V14.01,2013-02-11 12:50:00,
2013-02-11 07:55:00,54.0,54.0,30.06,North,6,0.0,0.0,100,0.04,,-RA,0.04,VWS V14.01,2013-02-11 12:55:00,
2013-02-11 08:00:00,54.0,54.0,30.06,WNW,289,0.0,0.0,100,0.04,,-RA,0.04,VWS V14.01,2013-02-11 13:00:00,
2013-02-11 08:06:00,54.0,54.0,30.06,SSW,196,0.0,0.0,100,0.04,,-RA,0.04,VWS V14.01,2013-02-11 13:06:00,
2013-02-11 08:11:00,54.0,54.0,30.06,SW,217,0.0,0.0,100,0.04,,-RA,0.04,VWS V14.01,2013-02-11 13:11:00,
2013-02-11 08:16:00,54.9,54.9,30.06,WNW,298,0.0,0.0,100,0.00,,-RA,0.04,VWS V14.01,2013-02-11 13:16:00,
2013-02-11 08:21:00,54.9,54.9,30.06,NW,321,0.0,0.0,100,0.00,,-RA,0.04,VWS V14.01,2013-02-11 13:21:00,
2013-02-11 08:26:00,55.3,55.3,30.06,NNE,30,0.0,0.0,100,0.00,,-RA,0.04,VWS V14.01,2013-02-11 13:26:00,
2013-02-11 08:31:00,55.3,55.3,30.06,NW,310,14.8,15.5,100,0.00,,-RA,0.04,VWS V14.01,2013-02-11 13:31:00,
2013-02-11 08:36:00,55.8,55.8,30.03,North,357,0.0,0.0,100,0.00,,-RA,0.04,VWS V14.01,2013-02-11 13:36:00,
2013-02-11 08:41:00,56.0,56.0,30.03,NW,317,0.0,0.0,100,0.00,,-RA,0.04,VWS V14.01,2013-02-11 13:41:00,
2013-02-11 08:46:00,56.0,56.0,30.03,SSW,210,0.0,0.0,100,0.00,,-RA,0.04,VWS V14.01,2013-02-11 13:46:00,
2013-02-11 08:51:00,56.0,56.0,30.03,NNW,328,0.0,0.0,100,0.00,,-RA,0.04,VWS V14.01,2013-02-11 13:51:00,
2013-02-11 08:56:00,56.4,56.4,30.03,NNW,340,0.0,0.0,100,0.00,,-RA,0.04,VWS V14.01,2013-02-11 13:56:00,
2013-02-11 09:01:00,56.6,56.6,30.03,South,190,0.0,0.0,100,0.00,,OVC012,0.04,VWS V14.01,2013-02-11 14:01:00,
2013-02-11 09:06:00,56.9,56.9,30.03,NE,37,0.0,0.0,100,0.00,,OVC012,0.04,VWS V14.01,2013-02-11 14:06:00,
2013-02-11 09:11:00,56.9,56.9,30.03,West,268,0.0,0.0,100,0.00,,OVC012,0.04,VWS V14.01,2013-02-11 14:11:00,
2013-02-11 09:17:00,56.9,56.9,30.03,West,266,0.0,7.0,100,0.00,,OVC012,0.04,VWS V14.01,2013-02-11 14:17:00,
2013-02-11 09:22:00,57.3,57.3,30.03,WNW,288,9.4,9.9,100,0.00,,OVC012,0.04,VWS V14.01,2013-02-11 14:22:00,
2013-02-11 09:27:00,57.3,57.3,30.03,SSE,166,0.0,0.0,100,0.00,,OVC012,0.04,VWS V14.01,2013-02-11 14:27:00,
2013-02-11 09:32:00,57.5,57.5,30.03,SSE,166,0.0,0.0,100,0.00,,OVC012,0.04,VWS V14.01,2013-02-11 14:32:00,
2013-02-11 09:37:00,57.5,57.5,30.03,West,278,0.0,0.0,100,0.00,,OVC012,0.04,VWS V14.01,2013-02-11 14:37:00,
2013-02-11 09:42:00,57.5,57.5,30.03,South,189,0.0,0.0,100,0.00,,OVC012,0.04,VWS V14.01,2013-02-11 14:42:00,
2013-02-11 09:47:00,57.5,57.5,30.03,WSW,256,0.0,0.0,100,0.00,,OVC012,0.04,VWS V14.01,2013-02-11 14:47:00,
2013-02-11 09:52:00,57.5,57.5,30.03,SSW,204,10.7,11.3,100,0.00,,OVC012,0.04,VWS V14.01,2013-02-11 14:52:00,
2013-02-11 09:57:00,57.8,57.8,30.03,SW,218,0.0,0.0,100,0.00,,OVC012,0.04,VWS V14.01,2013-02-11 14:57:00,
2013-02-11 10:02:00,57.8,57.8,30.03,NW,316,8.1,9.9,100,0.00,,OVC010,0.04,VWS V14.01,2013-02-11 15:02:00,
2013-02-11 10:07:00,57.8,57.8,30.03,West,279,0.0,0.0,100,0.00,,OVC010,0.04,VWS V14.01,2013-02-11 15:07:00,
2013-02-11 10:12:00,57.8,57.8,30.03,WSW,246,0.0,0.0,100,0.00,,OVC010,0.04,VWS V14.01,2013-02-11 15:12:00,
2013-02-11 10:17:00,57.8,57.8,30.03,South,179,0.0,0.0,100,0.00,,OVC010,0.04,VWS V14.01,2013-02-11 15:17:00,
2013-02-11 10:23:00,57.8,57.8,30.03,WSW,239,0.0,11.3,100,0.00,,OVC010,0.04,VWS V14.01,2013-02-11 15:23:00,
2013-02-11 10:28:00,57.8,57.8,30.03,SE,141,0.0,0.0,100,0.00,,OVC010,0.04,VWS V14.01,2013-02-11 15:28:00,
2013-02-11 10:33:00,58.2,58.2,30.03,South,177,10.7,11.3,100,0.00,,OVC010,0.04,VWS V14.01,2013-02-11 15:33:00,
2013-02-11 10:38:00,58.2,58.2,30.03,SSW,210,0.0,8.5,100,0.00,,OVC010,0.04,VWS V14.01,2013-02-11 15:38:00,
2013-02-11 10:43:00,58.2,58.2,30.03,ESE,118,0.0,9.9,100,0.00,,OVC010,0.04,VWS V14.01,2013-02-11 15:43:00,
2013-02-11 10:48:00,58.2,58.2,30.03,SW,220,8.1,8.5,100,0.00,,,0.04,VWS V14.01,2013-02-11 15:48:00,
2013-02-11 10:53:00,58.2,58.2,30.03,WSW,256,0.0,11.3,100,0.00,,,0.04,VWS V14.01,2013-02-11 15:53:00,
2013-02-11 10:58:00,58.4,58.4,30.03,SSW,205,0.0,0.0,100,0.00,,,0.04,VWS V14.01,2013-02-11 15:58:00,
2013-02-11 11:03:00,59.1,59.1,30.03,SW,226,0.0,12.7,100,0.00,,-RA,0.04,VWS V14.01,2013-02-11 16:03:00,
2013-02-11 11:08:00,59.3,59.3,30.03,WSW,240,0.0,9.9,100,0.00,,-RA,0.04,VWS V14.01,2013-02-11 16:08:00,
2013-02-11 11:13:00,59.4,59.4,30.03,South,185,0.0,0.0,100,0.00,,-RA,0.04,VWS V14.01,2013-02-11 16:13:00,
2013-02-11 11:18:00,59.3,59.3,30.03,SSE,155,0.0,0.0,100,0.00,,-RA,0.04,VWS V14.01,2013-02-11 16:18:00,
2013-02-11 11:23:00,59.3,59.3,30.03,South,188,0.0,0.0,100,0.00,,-RA,0.04,VWS V14.01,2013-02-11 16:23:00,
2013-02-11 11:28:00,59.3,59.3,30.03,West,260,0.0,0.0,100,0.00,,-RA,0.04,VWS V14.01,2013-02-11 16:28:00,
2013-02-11 11:33:00,59.1,59.1,30.03,South,182,0.0,0.0,100,0.00,,OVC012,0.04,VWS V14.01,2013-02-11 16:33:00,
2013-02-11 11:38:00,59.3,59.3,30.00,South,183,0.0,8.5,100,0.00,,OVC012,0.04,VWS V14.01,2013-02-11 16:38:00,
2013-02-11 11:43:00,59.3,59.3,30.00,SSE,162,8.1,8.5,100,0.00,,OVC012,0.04,VWS V14.01,2013-02-11 16:43:00,
2013-02-11 11:48:00,59.3,59.3,30.00,SSE,162,0.0,8.5,100,0.00,,OVC012,0.04,VWS V14.01,2013-02-11 16:48:00,
2013-02-11 11:53:00,59.4,59.4,30.00,NE,44,0.0,0.0,100,0.00,,OVC012,0.04,VWS V14.01,2013-02-11 16:53:00,
2013-02-11 11:59:00,59.4,59.4,30.00,SE,136,0.0,0.0,100,0.00,,OVC012,0.04,VWS V14.01,2013-02-11 16:59:00,
2013-02-11 12:04:00,59.4,59.4,30.00,SSE,153,0.0,0.0,100,0.00,,OVC008,0.04,VWS V14.01,2013-02-11 17:04:00,
2013-02-11 12:09:00,59.4,59.4,30.00,South,178,0.0,0.0,100,0.00,,OVC008,0.04,VWS V14.01,2013-02-11 17:09:00,
2013-02-11 12:14:00,59.4,59.4,30.00,SW,221,0.0,0.0,100,0.00,,OVC008,0.04,VWS V14.01,2013-02-11 17:14:00,
2013-02-11 12:19:00,59.4,59.4,30.00,SSW,194,8.1,8.5,100,0.00,,OVC008,0.04,VWS V14.01,2013-02-11 17:19:00,
2013-02-11 12:24:00,59.4,59.4,30.00,SSE,165,0.0,8.5,100,0.00,,OVC008,0.04,VWS V14.01,2013-02-11 17:24:00,
2013-02-11 12:29:00,59.6,59.6,30.00,SSE,168,0.0,16.9,100,0.00,,OVC008,0.04,VWS V14.01,2013-02-11 17:29:00,
2013-02-11 12:34:00,59.6,59.6,30.00,SW,225,6.7,9.9,100,0.00,,OVC008,0.04,VWS V14.01,2013-02-11 17:34:00,
2013-02-11 12:39:00,59.8,59.8,30.00,SSE,162,0.0,7.0,100,0.00,,OVC008,0.04,VWS V14.01,2013-02-11 17:39:00,
2013-02-11 12:44:00,59.8,59.8,30.00,SSE,166,0.0,0.0,100,0.00,,OVC008,0.04,VWS V14.01,2013-02-11 17:44:00,
2013-02-11 12:49:00,60.0,60.0,29.97,South,183,0.0,0.0,100,0.00,,,0.04,VWS V14.01,2013-02-11 17:49:00,
2013-02-11 12:55:00,60.0,60.0,29.97,West,270,0.0,8.5,100,0.00,,,0.04,VWS V14.01,2013-02-11 17:55:00,
2013-02-11 13:00:00,60.2,60.2,29.97,SW,216,14.8,15.5,100,0.00,,,0.04,VWS V14.01,2013-02-11 18:00:00,
2013-02-11 13:05:00,60.2,60.2,29.97,WSW,244,0.0,15.5,100,0.00,,OVC010,0.04,VWS V14.01,2013-02-11 18:05:00,
2013-02-11 13:10:00,60.2,60.2,29.97,West,263,9.4,9.9,100,0.00,,OVC010,0.04,VWS V14.01,2013-02-11 18:10:00,
2013-02-11 13:15:00,60.3,60.3,29.97,SW,222,8.1,16.9,100,0.00,,OVC010,0.04,VWS V14.01,2013-02-11 18:15:00,
2013-02-11 13:20:00,60.3,60.3,29.97,South,190,6.7,8.5,100,0.00,,OVC010,0.04,VWS V14.01,2013-02-11 18:20:00,
2013-02-11 13:25:00,60.3,60.3,29.97,West,279,8.1,8.5,100,0.00,,OVC010,0.04,VWS V14.01,2013-02-11 18:25:00,
2013-02-11 13:30:00,60.3,60.3,29.97,SSE,165,0.0,0.0,100,0.00,,OVC010,0.04,VWS V14.01,2013-02-11 18:30:00,
2013-02-11 13:35:00,60.2,60.2,29.97,South,188,0.0,8.5,100,0.00,,OVC010,0.04,VWS V14.01,2013-02-11 18:35:00,
2013-02-11 13:40:00,60.2,60.2,29.97,SSE,168,0.0,0.0,100,0.00,,OVC010,0.04,VWS V14.01,2013-02-11 18:40:00,
2013-02-11 13:45:00,60.2,60.2,29.97,WSW,251,0.0,11.3,100,0.00,,OVC010,0.04,VWS V14.01,2013-02-11 18:45:00,
2013-02-11 13:50:00,60.2,60.2,29.97,North,0,0.0,0.0,100,0.00,,OVC010,0.04,VWS V14.01,2013-02-11 18:50:00,
2013-02-11 13:55:00,60.2,60.2,29.97,SSW,207,0.0,0.0,100,0.00,,OVC010,0.04,VWS V14.01,2013-02-11 18:55:00,
2013-02-11 14:00:00,60.2,60.2,29.94,SW,236,0.0,0.0,100,0.00,,OVC010,0.04,VWS V14.01,2013-02-11 19:00:00,
2013-02-11 14:05:00,60.2,60.2,29.94,WNW,285,0.0,8.5,100,0.00,,,0.04,VWS V14.01,2013-02-11 19:05:00,
2013-02-11 14:10:00,60.2,60.2,29.94,SSW,210,6.7,7.0,100,0.00,,,0.04,VWS V14.01,2013-02-11 19:10:00,
2013-02-11 14:15:00,60.2,60.2,29.94,South,186,9.4,9.9,100,0.00,,,0.04,VWS V14.01,2013-02-11 19:15:00,
2013-02-11 14:20:00,60.3,60.3,29.94,South,186,0.0,0.0,100,0.00,,,0.04,VWS V14.01,2013-02-11 19:20:00,
2013-02-11 14:25:00,60.3,60.3,29.94,ESE,106,10.7,11.3,100,0.00,,,0.04,VWS V14.01,2013-02-11 19:25:00,
2013-02-11 14:30:00,60.3,60.3,29.94,South,187,0.0,11.3,100,0.00,,,0.04,VWS V14.01,2013-02-11 19:30:00,
2013-02-11 14:35:00,60.5,60.5,29.94,WNW,285,0.0,0.0,100,0.00,,,0.04,VWS V14.01,2013-02-11 19:35:00,
2013-02-11 14:41:00,60.5,60.5,29.94,SSE,167,0.0,0.0,100,0.00,,,0.04,VWS V14.01,2013-02-11 19:41:00,
2013-02-11 14:46:00,60.5,60.5,29.94,West,265,0.0,0.0,100,0.00,,,0.04,VWS V14.01,2013-02-11 19:46:00,
2013-02-11 14:51:00,60.5,60.5,29.94,SW,235,9.4,9.9,100,0.00,,,0.04,VWS V14.01,2013-02-11 19:51:00,
2013-02-11 14:56:00,60.7,60.7,29.94,NNW,343,9.4,9.9,100,0.00,,,0.04,VWS V14.01,2013-02-11 19:56:00,
2013-02-11 15:01:00,60.7,60.7,29.94,South,175,9.4,9.9,100,0.00,,,0.04,VWS V14.01,2013-02-11 20:01:00,
2013-02-11 15:06:00,60.9,60.9,29.94,SSE,152,12.1,12.7,100,0.00,,,0.04,VWS V14.01,2013-02-11 20:06:00,
2013-02-11 15:11:00,60.9,60.9,29.94,SSW,207,0.0,0.0,100,0.00,,,0.04,VWS V14.01,2013-02-11 20:11:00,
2013-02-11 15:16:00,61.1,61.1,29.94,SSE,163,8.1,8.5,100,0.00,,,0.04,VWS V14.01,2013-02-11 20:16:00,
2013-02-11 15:21:00,61.1,60.8,29.94,South,190,0.0,0.0,99,0.00,,,0.04,VWS V14.01,2013-02-11 20:21:00,
2013-02-11 15:26:00,61.2,61.0,29.94,SW,229,17.4,18.3,99,0.00,,,0.04,VWS V14.01,2013-02-11 20:26:00,
2013-02-11 15:31:00,61.2,60.4,29.94,South,171,0.0,8.5,97,0.00,,,0.04,VWS V14.01,2013-02-11 20:31:00,
2013-02-11 15:36:00,61.2,60.1,29.94,SSE,157,8.1,8.5,96,0.00,,,0.04,VWS V14.01,2013-02-11 20:36:00,
2013-02-11 15:41:00,61.2,60.1,29.94,South,181,0.0,0.0,96,0.00,,,0.04,VWS V14.01,2013-02-11 20:41:00,
2013-02-11 15:46:00,61.4,60.0,29.94,SSW,193,0.0,0.0,95,0.00,,OVC020,0.04,VWS V14.01,2013-02-11 20:46:00,
2013-02-11 15:51:00,61.4,60.3,29.94,SSE,166,6.7,7.0,96,0.00,,OVC020,0.04,VWS V14.01,2013-02-11 20:51:00,
2013-02-11 15:56:00,61.4,60.3,29.94,WNW,286,0.0,0.0,96,0.00,,OVC020,0.04,VWS V14.01,2013-02-11 20:56:00,
2013-02-11 16:01:00,61.4,60.3,29.91,North,353,10.7,11.3,96,0.00,,OVC020,0.04,VWS V14.01,2013-02-11 21:01:00,
2013-02-11 16:06:00,61.6,60.2,29.91,WSW,258,9.4,9.9,95,0.00,,OVC020,0.04,VWS V14.01,2013-02-11 21:06:00,
2013-02-11 16:11:00,61.6,60.2,29.91,South,177,0.0,0.0,95,0.00,,OVC020,0.04,VWS V14.01,2013-02-11 21:11:00,
2013-02-11 16:16:00,61.6,59.6,29.91,WNW,290,6.7,7.0,93,0.00,,OVC020,0.04,VWS V14.01,2013-02-11 21:16:00,
2013-02-11 16:21:00,61.6,59.6,29.91,South,173,8.1,8.5,93,0.00,,OVC020,0.04,VWS V14.01,2013-02-11 21:21:00,
2013-02-11 16:26:00,61.6,59.6,29.91,SSE,160,0.0,9.9,93,0.00,,OVC020,0.04,VWS V14.01,2013-02-11 21:26:00,
2013-02-11 16:32:00,61.6,59.6,29.91,West,274,0.0,0.0,93,0.00,,OVC020,0.04,VWS V14.01,2013-02-11 21:32:00,
2013-02-11 16:37:00,61.6,59.6,29.91,South,170,9.4,9.9,93,0.00,,OVC020,0.04,VWS V14.01,2013-02-11 21:37:00,
2013-02-11 16:42:00,61.6,59.3,29.91,SSE,162,8.1,8.5,92,0.00,,OVC020,0.04,VWS V14.01,2013-02-11 21:42:00,
2013-02-11 16:47:00,61.6,59.3,29.91,South,187,0.0,9.9,92,0.00,,OVC020,0.04,VWS V14.01,2013-02-11 21:47:00,
2013-02-11 16:52:00,61.6,59.3,29.91,SSW,206,0.0,0.0,92,0.00,,OVC020,0.04,VWS V14.01,2013-02-11 21:52:00,
2013-02-11 16:57:00,61.6,59.0,29.91,South,172,8.1,9.9,91,0.00,,OVC020,0.04,VWS V14.01,2013-02-11 21:57:00,
2013-02-11 17:02:00,61.6,58.6,29.91,West,264,9.4,9.9,90,0.00,,OVC020,0.04,VWS V14.01,2013-02-11 22:02:00,
2013-02-11 17:07:00,61.6,58.6,29.91,SSW,202,8.1,8.5,90,0.00,,OVC020,0.04,VWS V14.01,2013-02-11 22:07:00,
2013-02-11 17:12:00,61.6,58.6,29.91,SSE,166,6.7,7.0,90,0.00,,OVC020,0.04,VWS V14.01,2013-02-11 22:12:00,
2013-02-11 17:17:00,61.6,58.3,29.91,SSE,162,6.7,8.5,89,0.00,,OVC024,0.04,VWS V14.01,2013-02-11 22:17:00,
2013-02-11 17:22:00,61.6,58.3,29.91,SSW,202,0.0,11.3,89,0.00,,OVC024,0.04,VWS V14.01,2013-02-11 22:22:00,
2013-02-11 17:27:00,61.6,58.3,29.91,South,171,9.4,11.3,89,0.00,,OVC024,0.04,VWS V14.01,2013-02-11 22:27:00,
2013-02-11 17:32:00,61.6,58.3,29.91,South,186,9.4,9.9,89,0.00,,OVC024,0.04,VWS V14.01,2013-02-11 22:32:00,
2013-02-11 17:37:00,62.0,60.5,29.91,South,186,6.7,7.0,95,0.00,,OVC024,0.04,VWS V14.01,2013-02-11 22:37:00,
2013-02-11 17:42:00,62.0,61.1,29.91,NNW,327,0.0,9.9,97,0.00,,OVC024,0.04,VWS V14.01,2013-02-11 22:42:00,
2013-02-11 17:48:00,62.0,59.6,29.91,SSW,205,0.0,0.0,92,0.00,,OVC024,0.04,VWS V14.01,2013-02-11 22:48:00,
2013-02-11 17:53:00,61.8,58.2,29.91,South,179,6.7,7.0,88,0.00,,OVC024,0.04,VWS V14.01,2013-02-11 22:53:00,
2013-02-11 17:58:00,61.8,58.2,29.91,SSE,168,0.0,7.0,88,0.00,,OVC024,0.04,VWS V14.01,2013-02-11 22:58:00,
2013-02-11 18:03:00,61.4,57.8,29.91,South,188,0.0,9.9,88,0.00,,OVC041,0.04,VWS V14.01,2013-02-11 23:03:00,
2013-02-11 18:08:00,61.4,57.8,29.91,WNW,288,0.0,0.0,88,0.00,,OVC041,0.04,VWS V14.01,2013-02-11 23:08:00,
2013-02-11 18:13:00,61.4,57.8,29.91,South,172,12.1,12.7,88,0.00,,OVC041,0.04,VWS V14.01,2013-02-11 23:13:00,
2013-02-11 18:18:00,61.4,57.8,29.91,West,268,6.7,9.9,88,0.00,,OVC041,0.04,VWS V14.01,2013-02-11 23:18:00,
2013-02-11 18:23:00,61.2,57.7,29.91,SE,141,8.1,8.5,88,0.00,,OVC041,0.04,VWS V14.01,2013-02-11 23:23:00,
2013-02-11 18:28:00,61.2,57.7,29.91,South,173,0.0,8.5,88,0.00,,OVC041,0.04,VWS V14.01,2013-02-11 23:28:00,
2013-02-11 18:33:00,61.2,57.7,29.91,South,181,12.1,12.7,88,0.00,,OVC041,0.04,VWS V14.01,2013-02-11 23:33:00,
2013-02-11 18:38:00,61.2,57.7,29.91,South,181,6.7,9.9,88,0.00,,OVC041,0.04,VWS V14.01,2013-02-11 23:38:00,
2013-02-11 18:43:00,61.2,57.7,29.91,SSW,194,0.0,8.5,88,0.00,,OVC041,0.04,VWS V14.01,2013-02-11 23:43:00,
2013-02-11 18:48:00,61.2,57.7,29.91,SSE,167,0.0,0.0,88,0.00,,OVC041,0.04,VWS V14.01,2013-02-11 23:48:00,
2013-02-11 18:53:00,61.1,57.5,29.91,South,180,6.7,8.5,88,0.00,,OVC041,0.04,VWS V14.01,2013-02-11 23:53:00,
2013-02-11 18:58:00,60.9,57.3,29.94,West,273,0.0,9.9,88,0.00,,OVC041,0.04,VWS V14.01,2013-02-11 23:58:00,
2013-02-11 19:03:00,60.9,57.3,29.94,SSE,164,0.0,8.5,88,0.00,,OVC180,0.04,VWS V14.01,2013-02-12 00:03:00,
2013-02-11 19:08:00,60.9,57.3,29.91,South,175,9.4,12.7,88,0.00,,OVC180,0.04,VWS V14.01,2013-02-12 00:08:00,
2013-02-11 19:13:00,60.9,57.0,29.91,South,177,0.0,8.5,87,0.00,,OVC180,0.04,VWS V14.01,2013-02-12 00:13:00,
2013-02-11 19:19:00,60.9,57.0,29.91,South,169,0.0,9.9,87,0.00,,OVC180,0.04,VWS V14.01,2013-02-12 00:19:00,
2013-02-11 19:24:00,60.9,57.0,29.91,South,171,0.0,11.3,87,0.00,,OVC180,0.04,VWS V14.01,2013-02-12 00:24:00,
2013-02-11 19:29:00,60.9,57.0,29.94,South,178,0.0,8.5,87,0.00,,OVC180,0.04,VWS V14.01,2013-02-12 00:29:00,
2013-02-11 19:34:00,60.7,56.8,29.94,SSE,166,12.1,12.7,87,0.00,,OVC180,0.04,VWS V14.01,2013-02-12 00:34:00,
2013-02-11 19:39:00,60.9,57.0,29.94,South,170,8.1,9.9,87,0.00,,OVC180,0.04,VWS V14.01,2013-02-12 00:39:00,
2013-02-11 19:44:00,60.9,57.0,29.94,SSE,156,8.1,8.5,87,0.00,,OVC180,0.04,VWS V14.01,2013-02-12 00:44:00,
2013-02-11 19:49:00,60.9,57.0,29.94,South,170,8.1,15.5,87,0.00,,OVC180,0.04,VWS V14.01,2013-02-12 00:49:00,
2013-02-11 19:54:00,60.9,57.0,29.94,South,184,8.1,16.9,87,0.00,,OVC180,0.04,VWS V14.01,2013-02-12 00:54:00,
2013-02-11 19:59:00,60.9,56.7,29.94,SSE,167,0.0,8.5,86,0.00,,OVC180,0.04,VWS V14.01,2013-02-12 00:59:00,
2013-02-11 20:04:00,60.9,56.7,29.94,SSE,165,0.0,9.9,86,0.00,,OVC180,0.04,VWS V14.01,2013-02-12 01:04:00,
2013-02-11 20:09:00,60.7,56.2,29.94,South,173,0.0,0.0,85,0.00,,OVC180,0.04,VWS V14.01,2013-02-12 01:09:00,
2013-02-11 20:14:00,60.7,56.2,29.94,South,169,12.1,12.7,85,0.00,,OVC180,0.04,VWS V14.01,2013-02-12 01:14:00,
2013-02-11 20:19:00,60.3,55.8,29.94,South,170,8.1,8.5,85,0.00,,OVC180,0.04,VWS V14.01,2013-02-12 01:19:00,
2013-02-11 20:24:00,60.3,55.8,29.94,South,170,0.0,11.3,85,0.00,,OVC180,0.04,VWS V14.01,2013-02-12 01:24:00,
2013-02-11 20:29:00,60.2,55.6,29.94,SSE,164,8.1,8.5,85,0.00,,OVC180,0.04,VWS V14.01,2013-02-12 01:29:00,
2013-02-11 20:34:00,60.2,55.6,29.94,SSE,165,0.0,8.5,85,0.00,,OVC180,0.04,VWS V14.01,2013-02-12 01:34:00,
2013-02-11 20:39:00,60.2,55.6,29.91,SE,143,8.1,8.5,85,0.00,,OVC180,0.04,VWS V14.01,2013-02-12 01:39:00,
2013-02-11 20:45:00,60.2,55.6,29.91,South,175,0.0,8.5,85,0.00,,OVC180,0.04,VWS V14.01,2013-02-12 01:45:00,
2013-02-11 20:50:00,59.8,55.6,29.91,South,182,0.0,8.5,86,0.00,,OVC180,0.04,VWS V14.01,2013-02-12 01:50:00,
2013-02-11 20:55:00,59.8,55.6,29.91,SSE,168,6.7,9.9,86,0.00,,OVC180,0.04,VWS V14.01,2013-02-12 01:55:00,
2013-02-11 21:00:00,59.6,56.1,29.91,South,175,0.0,7.0,88,0.00,,OVC180,0.04,VWS V14.01,2013-02-12 02:00:00,
2013-02-11 21:05:00,59.4,56.2,29.94,South,186,8.1,8.5,89,0.00,,OVC200,0.04,VWS V14.01,2013-02-12 02:05:00,
2013-02-11 21:10:00,59.4,56.5,29.94,SSE,164,0.0,0.0,90,0.00,,OVC200,0.04,VWS V14.01,2013-02-12 02:10:00,
2013-02-11 21:15:00,59.3,56.9,29.94,SSE,151,0.0,0.0,92,0.00,,OVC200,0.04,VWS V14.01,2013-02-12 02:15:00,
2013-02-11 21:20:00,59.1,57.1,29.94,South,170,6.7,7.0,93,0.00,,OVC200,0.04,VWS V14.01,2013-02-12 02:20:00,
2013-02-11 21:25:00,59.1,57.7,29.94,South,180,0.0,0.0,95,0.00,,OVC200,0.04,VWS V14.01,2013-02-12 02:25:00,
2013-02-11 21:30:00,58.9,57.5,29.94,South,176,0.0,0.0,95,0.00,,OVC200,0.04,VWS V14.01,2013-02-12 02:30:00,
2013-02-11 21:35:00,58.9,57.8,29.94,South,173,6.7,11.3,96,0.00,,OVC200,0.04,VWS V14.01,2013-02-12 02:35:00,
2013-02-11 21:40:00,58.7,57.3,29.91,SSE,164,8.1,12.7,95,0.00,,OVC200,0.04,VWS V14.01,2013-02-12 02:40:00,
2013-02-11 21:45:00,58.7,57.3,29.91,SSE,163,6.7,7.0,95,0.00,,OVC200,0.04,VWS V14.01,2013-02-12 02:45:00,
2013-02-11 21:51:00,58.7,57.3,29.91,SSE,157,0.0,0.0,95,0.00,,OVC200,0.04,VWS V14.01,2013-02-12 02:51:00,
2013-02-11 21:56:00,58.5,57.1,29.91,South,177,0.0,8.5,95,0.00,,OVC200,0.04,VWS V14.01,2013-02-12 02:56:00,
2013-02-11 22:01:00,58.5,57.1,29.91,SSE,162,8.1,8.5,95,0.00,,OVC200,0.04,VWS V14.01,2013-02-12 03:01:00,
2013-02-11 22:06:00,58.4,56.9,29.91,SSW,208,9.4,9.9,95,0.00,,OVC200,0.04,VWS V14.01,2013-02-12 03:06:00,
2013-02-11 22:11:00,58.4,56.9,29.91,SSE,159,8.1,8.5,95,0.00,,OVC200,0.04,VWS V14.01,2013-02-12 03:11:00,
2013-02-11 22:16:00,58.4,56.9,29.91,SSE,162,12.1,12.7,95,0.00,,OVC200,0.04,VWS V14.01,2013-02-12 03:16:00,
2013-02-11 22:21:00,58.2,56.8,29.91,South,184,10.7,11.3,95,0.00,,OVC200,0.04,VWS V14.01,2013-02-12 03:21:00,
2013-02-11 22:26:00,58.2,56.5,29.91,South,177,0.0,8.5,94,0.00,,OVC200,0.04,VWS V14.01,2013-02-12 03:26:00,
2013-02-11 22:31:00,58.2,56.5,29.91,SSE,159,6.7,11.3,94,0.00,,OVC200,0.04,VWS V14.01,2013-02-12 03:31:00,
2013-02-11 22:37:00,58.0,56.0,29.91,South,187,6.7,7.0,93,0.00,,OVC200,0.04,VWS V14.01,2013-02-12 03:37:00,
2013-02-11 22:42:00,58.0,56.0,29.91,SSW,198,9.4,9.9,93,0.00,,OVC200,0.04,VWS V14.01,2013-02-12 03:42:00,
2013-02-11 22:47:00,57.8,55.8,29.91,South,178,8.1,9.9,93,0.00,,OVC200,0.04,VWS V14.01,2013-02-12 03:47:00,
2013-02-11 22:52:00,57.8,56.1,29.91,SSE,158,9.4,9.9,94,0.00,,OVC200,0.04,VWS V14.01,2013-02-12 03:52:00,
2013-02-11 22:57:00,57.6,55.9,29.91,South,169,0.0,8.5,94,0.00,,OVC200,0.04,VWS V14.01,2013-02-12 03:57:00,
2013-02-11 23:02:00,57.6,55.9,29.91,SE,140,12.1,12.7,94,0.00,,OVC200,0.04,VWS V14.01,2013-02-12 04:02:00,
2013-02-11 23:07:00,57.5,55.8,29.91,South,170,8.1,8.5,94,0.00,,OVC200,0.04,VWS V14.01,2013-02-12 04:07:00,
2013-02-11 23:12:00,57.5,55.8,29.91,SSE,168,6.7,12.7,94,0.00,,OVC200,0.04,VWS V14.01,2013-02-12 04:12:00,
2013-02-11 23:17:00,57.3,55.9,29.91,South,174,0.0,9.9,95,0.00,,OVC200,0.04,VWS V14.01,2013-02-12 04:17:00,
2013-02-11 23:23:00,57.1,55.7,29.91,SSE,164,8.1,12.7,95,0.00,,OVC200,0.04,VWS V14.01,2013-02-12 04:23:00,
2013-02-11 23:28:00,57.1,55.7,29.91,SSE,162,8.1,8.5,95,0.00,,OVC200,0.04,VWS V14.01,2013-02-12 04:28:00,
2013-02-11 23:33:00,57.1,55.7,29.91,SSW,202,8.1,8.5,95,0.00,,OVC200,0.04,VWS V14.01,2013-02-12 04:33:00,
2013-02-11 23:38:00,56.9,55.5,29.91,SSE,158,0.0,8.5,95,0.00,,OVC200,0.04,VWS V14.01,2013-02-12 04:38:00,
2013-02-11 23:43:00,56.9,55.5,29.91,SSE,159,6.7,9.9,95,0.00,,OVC200,0.04,VWS V14.01,2013-02-12 04:43:00,
2013-02-11 23:48:00,56.9,55.5,29.91,South,182,0.0,0.0,95,0.00,,OVC200,0.04,VWS V14.01,2013-02-12 04:48:00,
2013-02-11 23:53:00,56.7,55.3,29.91,SSE,156,8.1,12.7,95,0.00,,OVC200,0.04,VWS V14.01,2013-02-12 04:53:00,
2013-02-11 23:58:00,56.6,55.2,29.91,South,178,0.0,9.9,95,0.00,,OVC200,0.04,VWS V14.01,2013-02-12 04:58:00,